Time;durP1;ratioP1;P1;durP2;ratioP2;P2;SDS_P1;SDS_P2;PMS_P1;PMS_P2;Temp;Humidity;BMP_temperature;BMP_pressure;BME280_temperature;BME280_humidity;BME280_pressure;Samples;Min_cycle;Max_cycle;Signal;HPM_P1;HPM_P2
2021/12/29 00:01:02;;;;;;;0.10;0.10;;;4.30;99.90;;;;;;4929054;29;20663;-70
2021/12/29 00:03:29;;;;;;;0.10;0.10;;;4.30;99.90;;;;;;4927919;29;20619;-70
2021/12/29 00:05:56;;;;;;;0.10;0.10;;;3.90;99.90;;;;;;4943373;28;20628;-70
2021/12/29 00:08:25;;;;;;;0.10;0.10;;;4.20;99.90;;;;;;4928492;29;20658;-69
2021/12/29 00:10:55;;;;;;;0.10;0.10;;;3.90;99.90;;;;;;4927843;29;20667;-68
2021/12/29 00:13:22;;;;;;;0.10;0.10;;;3.90;99.90;;;;;;4928451;29;21002;-68
2021/12/29 00:15:57;;;;;;;0.10;0.10;;;4.00;99.90;;;;;;4929053;29;20703;-69
2021/12/29 00:18:25;;;;;;;0.10;0.10;;;3.80;99.90;;;;;;4927683;29;20622;-68
2021/12/29 00:20:52;;;;;;;0.10;0.10;;;3.90;99.90;;;;;;4928127;29;20655;-69
2021/12/29 00:23:19;;;;;;;0.10;0.10;;;4.10;99.90;;;;;;4930275;29;20702;-69
2021/12/29 00:25:48;;;;;;;0.10;0.10;;;3.70;99.90;;;;;;4927135;29;20678;-69
2021/12/29 00:28:15;;;;;;;0.10;0.10;;;4.10;99.90;;;;;;4926707;29;20682;-68
2021/12/29 00:30:43;;;;;;;0.10;0.10;;;3.70;99.90;;;;;;4927593;29;20770;-68
2021/12/29 00:33:29;;;;;;;0.10;0.10;;;3.90;99.90;;;;;;4924506;29;20593;-68
2021/12/29 00:36:15;;;;;;;0.10;0.10;;;4.10;99.90;;;;;;4930266;29;20697;-68
2021/12/29 00:39:05;;;;;;;0.10;0.10;;;3.90;99.90;;;;;;4920826;28;20618;-68
2021/12/29 00:41:52;;;;;;;0.10;0.10;;;3.60;99.90;;;;;;4929235;29;20654;-68
2021/12/29 00:44:22;;;;;;;0.10;0.10;;;3.80;99.90;;;;;;4924024;29;20725;-70
2021/12/29 00:47:03;;;;;;;0.10;0.10;;;3.80;99.90;;;;;;4926793;29;20634;-69
2021/12/29 00:49:33;;;;;;;0.10;0.10;;;3.50;99.90;;;;;;4925598;29;20690;-68
2021/12/29 00:52:00;;;;;;;0.10;0.10;;;3.90;99.90;;;;;;4927810;29;20707;-69
2021/12/29 00:54:28;;;;;;;0.10;0.10;;;3.80;99.90;;;;;;4927570;29;20663;-69
2021/12/29 00:56:56;;;;;;;0.10;0.10;;;3.90;99.90;;;;;;4927795;29;20738;-69
2021/12/29 00:59:23;;;;;;;0.10;0.10;;;3.30;99.90;;;;;;4927983;29;20651;-67
2021/12/29 01:01:51;;;;;;;0.10;0.10;;;3.40;99.90;;;;;;4927147;29;20687;-68
2021/12/29 01:04:20;;;;;;;0.10;0.10;;;3.30;99.90;;;;;;4927143;29;20632;-69
2021/12/29 01:06:48;;;;;;;0.20;0.20;;;3.30;99.90;;;;;;4935529;28;20673;-69
2021/12/29 01:09:15;;;;;;;0.10;0.10;;;3.40;99.90;;;;;;4929956;29;20619;-69
2021/12/29 01:11:42;;;;;;;0.10;0.10;;;3.50;99.90;;;;;;4932163;29;20765;-68
2021/12/29 01:14:10;;;;;;;0.10;0.10;;;3.30;99.90;;;;;;4930959;29;21152;-68
2021/12/29 01:16:38;;;;;;;0.10;0.10;;;3.20;99.90;;;;;;4926598;29;20635;-69
2021/12/29 01:19:09;;;;;;;0.10;0.10;;;3.40;99.90;;;;;;4933216;28;20638;-68
2021/12/29 01:21:37;;;;;;;0.10;0.10;;;3.00;99.90;;;;;;4928708;29;20722;-69
2021/12/29 01:24:05;;;;;;;0.10;0.10;;;3.30;99.90;;;;;;4940443;28;20630;-70
2021/12/29 01:26:32;;;;;;;0.10;0.10;;;3.20;99.90;;;;;;4925040;29;20749;-68
2021/12/29 01:28:59;;;;;;;0.10;0.10;;;2.90;99.90;;;;;;4930525;29;20635;-68
2021/12/29 01:31:28;;;;;;;0.10;0.10;;;3.30;99.90;;;;;;4931479;29;20766;-69
2021/12/29 01:33:55;;;;;;;0.10;0.10;;;3.20;99.90;;;;;;4928958;29;20645;-69
2021/12/29 01:36:23;;;;;;;0.10;0.10;;;3.50;99.90;;;;;;4928516;29;20630;-69
2021/12/29 01:38:50;;;;;;;0.10;0.10;;;3.50;99.90;;;;;;4925275;29;20637;-70
2021/12/29 01:41:17;;;;;;;0.10;0.10;;;3.40;99.90;;;;;;4931068;29;21101;-68
2021/12/29 01:43:44;;;;;;;0.10;0.10;;;3.50;99.90;;;;;;4925129;29;20639;-70
2021/12/29 01:46:11;;;;;;;0.10;0.10;;;3.20;99.90;;;;;;4934913;29;20634;-69
2021/12/29 01:48:40;;;;;;;0.10;0.10;;;3.50;99.90;;;;;;4930571;29;20638;-70
2021/12/29 01:51:07;;;;;;;0.10;0.10;;;3.30;99.90;;;;;;4924313;29;20718;-69
2021/12/29 01:53:35;;;;;;;0.10;0.10;;;3.60;99.90;;;;;;4931332;29;20730;-69
2021/12/29 01:56:03;;;;;;;0.10;0.10;;;3.90;99.90;;;;;;4941797;28;20644;-71
2021/12/29 01:58:30;;;;;;;0.10;0.10;;;3.60;99.90;;;;;;4931934;29;20642;-69
2021/12/29 02:01:00;;;;;;;0.10;0.10;;;3.70;99.90;;;;;;4931657;29;20663;-68
2021/12/29 02:03:27;;;;;;;0.10;0.10;;;3.80;99.90;;;;;;4929887;29;20662;-67
2021/12/29 02:05:55;;;;;;;0.10;0.10;;;3.40;99.90;;;;;;4932111;28;20631;-68
2021/12/29 02:08:24;;;;;;;0.10;0.10;;;3.70;99.90;;;;;;4933895;29;20639;-68
2021/12/29 02:10:52;;;;;;;0.10;0.10;;;3.60;99.90;;;;;;4930017;29;20707;-69
2021/12/29 02:13:20;;;;;;;0.10;0.10;;;3.70;99.90;;;;;;4952284;28;20638;-69
2021/12/29 02:15:47;;;;;;;0.10;0.10;;;3.50;99.90;;;;;;4929189;29;20646;-67
2021/12/29 02:18:15;;;;;;;0.10;0.10;;;3.70;99.90;;;;;;4922559;29;20657;-68
2021/12/29 02:20:46;;;;;;;0.10;0.10;;;3.70;99.90;;;;;;4930339;29;20670;-68
2021/12/29 02:23:18;;;;;;;0.10;0.10;;;3.60;99.90;;;;;;4930742;29;20675;-67
2021/12/29 02:25:51;;;;;;;0.10;0.10;;;3.20;99.90;;;;;;4930016;29;20638;-68
2021/12/29 02:28:22;;;;;;;0.10;0.10;;;3.40;99.90;;;;;;4930327;29;20746;-68
2021/12/29 02:30:49;;;;;;;0.17;0.17;;;3.20;99.90;;;;;;4926277;29;20726;-69
2021/12/29 02:33:17;;;;;;;0.10;0.10;;;3.50;99.90;;;;;;4929994;29;20646;-68
2021/12/29 02:35:46;;;;;;;0.10;0.10;;;3.20;99.90;;;;;;4931303;28;20646;-67
2021/12/29 02:38:22;;;;;;;0.10;0.10;;;3.40;99.90;;;;;;4929510;29;20655;-68
2021/12/29 02:40:52;;;;;;;0.10;0.10;;;3.50;99.90;;;;;;4924437;29;20697;-69
2021/12/29 02:43:21;;;;;;;0.07;0.07;;;3.20;99.90;;;;;;4924662;29;20722;-68
2021/12/29 02:45:51;;;;;;;0.10;0.10;;;3.30;99.90;;;;;;4926751;29;20835;-69
2021/12/29 02:48:22;;;;;;;0.10;0.10;;;3.40;99.90;;;;;;4923601;29;20635;-69
2021/12/29 02:50:54;;;;;;;0.10;0.10;;;3.30;99.90;;;;;;4928008;29;20666;-68
2021/12/29 02:53:21;;;;;;;0.10;0.10;;;3.50;99.90;;;;;;4929925;29;20635;-68
2021/12/29 02:55:48;;;;;;;0.10;0.10;;;3.40;99.90;;;;;;4928471;29;20632;-69
2021/12/29 02:58:15;;;;;;;0.10;0.10;;;3.10;99.90;;;;;;4928858;29;20721;-67
2021/12/29 03:00:42;;;;;;;0.13;0.13;;;3.10;99.90;;;;;;4943955;28;20698;-69
2021/12/29 03:03:15;;;;;;;0.10;0.10;;;3.10;99.90;;;;;;4929558;29;20619;-68
2021/12/29 03:05:43;;;;;;;0.10;0.10;;;3.30;99.90;;;;;;4924897;29;20650;-67
2021/12/29 03:08:12;;;;;;;0.10;0.10;;;3.30;99.90;;;;;;4926884;29;21702;-68
2021/12/29 03:10:40;;;;;;;0.10;0.10;;;3.30;99.90;;;;;;4928967;29;20673;-68
2021/12/29 03:13:07;;;;;;;0.10;0.10;;;3.20;99.90;;;;;;4921849;29;20681;-67
2021/12/29 03:15:35;;;;;;;0.10;0.10;;;3.60;99.90;;;;;;4927575;29;20635;-68
2021/12/29 03:18:03;;;;;;;0.10;0.10;;;3.60;99.90;;;;;;4928425;29;20639;-68
2021/12/29 03:20:30;;;;;;;0.10;0.10;;;3.60;99.90;;;;;;4926744;29;20770;-69
2021/12/29 03:22:57;;;;;;;0.10;0.10;;;3.70;99.90;;;;;;4925675;29;20670;-68
2021/12/29 03:25:26;;;;;;;0.10;0.10;;;3.90;99.90;;;;;;4920483;29;20627;-69
2021/12/29 03:27:58;;;;;;;0.10;0.10;;;3.60;99.90;;;;;;4928851;29;20828;-67
2021/12/29 03:30:27;;;;;;;0.10;0.10;;;3.90;99.90;;;;;;4943946;28;20709;-67
2021/12/29 03:33:03;;;;;;;0.10;0.10;;;3.50;99.90;;;;;;4933341;29;20689;-68
2021/12/29 03:35:31;;;;;;;0.10;0.10;;;3.90;99.90;;;;;;4926711;29;20671;-68
2021/12/29 03:37:59;;;;;;;0.10;0.10;;;4.00;99.90;;;;;;4924307;29;20631;-67
2021/12/29 03:40:28;;;;;;;0.10;0.10;;;3.70;99.90;;;;;;4927005;29;20713;-70
2021/12/29 03:42:56;;;;;;;0.10;0.10;;;3.90;99.90;;;;;;4928526;29;20722;-67
2021/12/29 03:45:24;;;;;;;0.10;0.10;;;4.00;99.90;;;;;;4928815;29;20687;-68
2021/12/29 03:47:51;;;;;;;0.10;0.10;;;3.90;99.90;;;;;;4928150;29;20639;-68
2021/12/29 03:50:18;;;;;;;0.10;0.10;;;3.80;99.90;;;;;;4926715;29;20659;-68
2021/12/29 03:52:45;;;;;;;0.10;0.10;;;4.20;99.90;;;;;;4926440;29;20663;-67
2021/12/29 03:55:13;;;;;;;0.10;0.10;;;4.00;99.90;;;;;;4924129;29;20681;-70
2021/12/29 03:57:42;;;;;;;0.10;0.10;;;4.10;99.90;;;;;;4928023;29;20743;-68
2021/12/29 04:00:12;;;;;;;0.10;0.10;;;3.90;99.90;;;;;;4927835;29;20631;-68
2021/12/29 04:02:40;;;;;;;0.10;0.10;;;3.80;99.90;;;;;;4928251;29;21247;-68
2021/12/29 04:05:09;;;;;;;0.10;0.10;;;4.20;99.90;;;;;;4925097;29;20638;-68
2021/12/29 04:07:36;;;;;;;0.10;0.10;;;4.20;99.90;;;;;;4931388;28;20673;-67
2021/12/29 04:10:04;;;;;;;0.10;0.10;;;3.90;99.90;;;;;;4926948;29;20653;-68
2021/12/29 04:12:32;;;;;;;0.10;0.10;;;4.40;99.90;;;;;;4926190;29;21265;-68
2021/12/29 04:15:00;;;;;;;0.10;0.10;;;4.10;99.90;;;;;;4927603;28;20650;-68
2021/12/29 04:17:36;;;;;;;0.10;0.10;;;4.30;99.90;;;;;;4924307;29;20632;-69
2021/12/29 04:22:50;;;;;;;0.10;0.10;;;4.00;99.90;;;;;;4927507;29;20611;-68
2021/12/29 04:25:19;;;;;;;0.10;0.10;;;4.10;99.90;;;;;;4919244;29;20627;-68
2021/12/29 04:27:47;;;;;;;0.10;0.10;;;4.10;99.90;;;;;;4927724;29;20630;-68
2021/12/29 04:30:15;;;;;;;0.10;0.10;;;3.90;99.90;;;;;;4927369;29;20634;-67
2021/12/29 04:32:42;;;;;;;0.10;0.10;;;4.00;99.90;;;;;;4928288;29;21290;-67
2021/12/29 04:35:09;;;;;;;0.10;0.10;;;3.90;99.90;;;;;;4924061;29;20655;-68
2021/12/29 04:37:36;;;;;;;0.10;0.10;;;4.00;99.90;;;;;;4929028;29;20615;-68
2021/12/29 04:40:04;;;;;;;0.10;0.10;;;4.10;99.90;;;;;;4926819;29;20666;-67
2021/12/29 04:42:31;;;;;;;0.10;0.10;;;3.70;99.90;;;;;;4930887;29;21048;-69
2021/12/29 04:44:58;;;;;;;0.10;0.10;;;3.70;99.90;;;;;;4932784;29;20629;-67
2021/12/29 04:47:29;;;;;;;0.10;0.10;;;4.10;99.90;;;;;;4930376;29;20653;-68
2021/12/29 04:49:59;;;;;;;0.10;0.10;;;4.00;99.90;;;;;;4932548;29;20701;-70
2021/12/29 04:52:26;;;;;;;0.10;0.10;;;4.00;99.90;;;;;;4932066;29;20766;-67
2021/12/29 04:54:53;;;;;;;0.00;0.00;;;4.30;99.90;;;;;;4930966;29;20619;-70
2021/12/29 04:57:20;;;;;;;0.10;0.10;;;4.00;99.90;;;;;;4931718;29;20966;-67
2021/12/29 04:59:47;;;;;;;0.10;0.10;;;3.90;99.90;;;;;;4927402;29;20632;-67
2021/12/29 05:02:14;;;;;;;0.10;0.10;;;4.00;99.90;;;;;;4928555;29;20749;-69
2021/12/29 05:04:48;;;;;;;0.10;0.10;;;4.00;99.90;;;;;;4931909;29;20617;-67
2021/12/29 05:10:01;;;;;;;0.10;0.10;;;4.00;99.90;;;;;;4931043;29;20611;-67
2021/12/29 05:12:28;;;;;;;0.10;0.10;;;4.30;99.90;;;;;;4930443;29;20666;-66
2021/12/29 05:14:55;;;;;;;0.10;0.10;;;4.10;99.90;;;;;;4927500;29;20626;-68
2021/12/29 05:17:22;;;;;;;0.10;0.10;;;4.10;99.90;;;;;;4929907;29;20623;-67
2021/12/29 05:19:50;;;;;;;0.10;0.10;;;3.80;99.90;;;;;;4944376;28;20699;-68
2021/12/29 05:22:17;;;;;;;0.10;0.10;;;4.20;99.90;;;;;;4931857;29;21334;-68
2021/12/29 05:24:44;;;;;;;0.10;0.10;;;4.30;99.90;;;;;;4925567;29;20637;-69
2021/12/29 05:27:11;;;;;;;0.10;0.10;;;3.80;99.90;;;;;;4928917;29;20727;-68
2021/12/29 05:29:38;;;;;;;0.10;0.10;;;4.30;99.90;;;;;;4926404;29;20710;-70
2021/12/29 05:32:06;;;;;;;0.10;0.10;;;3.90;99.90;;;;;;4930745;29;20677;-68
2021/12/29 05:34:33;;;;;;;0.10;0.10;;;3.70;99.90;;;;;;4932520;29;20627;-68
2021/12/29 05:37:02;;;;;;;0.10;0.10;;;4.10;99.90;;;;;;4930765;29;20604;-68
2021/12/29 05:39:28;;;;;;;0.10;0.10;;;4.10;99.90;;;;;;4930622;29;20722;-68
2021/12/29 05:41:55;;;;;;;0.10;0.10;;;4.10;99.90;;;;;;4938125;28;20710;-68
2021/12/29 05:44:22;;;;;;;0.10;0.10;;;4.20;99.90;;;;;;4925224;29;20623;-68
2021/12/29 05:46:49;;;;;;;0.10;0.10;;;3.90;99.90;;;;;;4930497;29;20714;-69
2021/12/29 05:49:16;;;;;;;0.10;0.10;;;4.00;99.90;;;;;;4931575;29;20642;-67
2021/12/29 05:51:43;;;;;;;0.10;0.10;;;3.80;99.90;;;;;;4928609;29;20659;-68
2021/12/29 05:54:11;;;;;;;0.10;0.10;;;3.90;99.90;;;;;;4931777;29;20645;-68
2021/12/29 05:56:40;;;;;;;0.10;0.10;;;4.10;99.90;;;;;;4929427;29;20630;-68
2021/12/29 05:59:07;;;;;;;0.10;0.10;;;4.00;99.90;;;;;;4925774;29;20630;-68
2021/12/29 06:01:34;;;;;;;0.10;0.10;;;4.00;99.90;;;;;;4930145;29;20677;-68
2021/12/29 06:04:01;;;;;;;0.10;0.10;;;3.80;99.90;;;;;;4929946;29;20648;-68
2021/12/29 06:06:28;;;;;;;0.10;0.10;;;4.00;99.90;;;;;;4921228;29;20623;-67
2021/12/29 06:08:56;;;;;;;0.10;0.10;;;4.20;99.90;;;;;;4929179;29;20623;-68
2021/12/29 06:11:24;;;;;;;0.10;0.10;;;3.90;99.90;;;;;;4931357;29;20654;-69
2021/12/29 06:13:52;;;;;;;0.10;0.10;;;4.20;99.90;;;;;;4928143;29;20679;-68
2021/12/29 06:16:19;;;;;;;0.10;0.10;;;4.10;99.90;;;;;;4942761;28;21216;-69
2021/12/29 06:18:46;;;;;;;0.10;0.10;;;3.80;99.90;;;;;;4926371;29;20666;-67
2021/12/29 06:21:16;;;;;;;0.10;0.10;;;4.00;99.90;;;;;;4930440;29;20651;-69
2021/12/29 06:23:44;;;;;;;0.10;0.10;;;4.00;99.90;;;;;;4928167;29;21218;-69
2021/12/29 06:26:11;;;;;;;0.10;0.10;;;3.90;99.90;;;;;;4928513;29;20634;-68
2021/12/29 06:28:40;;;;;;;0.10;0.10;;;4.00;99.90;;;;;;4931204;29;20621;-68
2021/12/29 06:31:07;;;;;;;0.10;0.10;;;3.90;99.90;;;;;;4934354;28;20646;-68
2021/12/29 06:33:35;;;;;;;0.10;0.10;;;4.00;99.90;;;;;;4929479;29;20672;-69
2021/12/29 06:36:01;;;;;;;0.10;0.10;;;4.10;99.90;;;;;;4930492;29;20683;-69
2021/12/29 06:38:28;;;;;;;0.10;0.10;;;4.10;99.90;;;;;;4929180;29;20730;-68
2021/12/29 06:40:55;;;;;;;0.10;0.10;;;4.00;99.90;;;;;;4930295;29;20651;-68
2021/12/29 06:43:22;;;;;;;0.10;0.10;;;4.40;99.90;;;;;;4930209;29;20627;-68
2021/12/29 06:45:50;;;;;;;0.10;0.10;;;4.10;99.90;;;;;;4926871;29;20628;-68
2021/12/29 06:48:17;;;;;;;0.10;0.10;;;4.50;99.90;;;;;;4926666;29;21176;-67
2021/12/29 06:50:44;;;;;;;0.10;0.10;;;4.20;99.90;;;;;;4924113;29;20691;-68
2021/12/29 06:53:11;;;;;;;0.10;0.10;;;4.40;99.90;;;;;;4929444;29;20665;-70
2021/12/29 06:55:39;;;;;;;0.10;0.10;;;4.20;99.90;;;;;;4926183;29;20643;-69
2021/12/29 06:58:06;;;;;;;0.10;0.10;;;4.00;99.90;;;;;;4932502;28;20603;-68
2021/12/29 07:00:33;;;;;;;0.10;0.10;;;4.20;99.90;;;;;;4930900;29;20682;-69
2021/12/29 07:03:02;;;;;;;0.10;0.10;;;4.20;99.90;;;;;;4928745;29;20627;-71
2021/12/29 07:05:29;;;;;;;0.10;0.10;;;4.10;99.90;;;;;;4926397;29;20686;-67
2021/12/29 07:07:56;;;;;;;0.10;0.10;;;4.10;99.90;;;;;;4928917;29;20795;-68
2021/12/29 07:10:23;;;;;;;0.10;0.10;;;4.40;99.90;;;;;;4929042;29;20738;-68
2021/12/29 07:12:50;;;;;;;0.10;0.10;;;4.30;99.90;;;;;;4928829;29;20655;-68
2021/12/29 07:15:18;;;;;;;0.10;0.10;;;4.40;99.90;;;;;;4928397;29;20642;-68
2021/12/29 07:17:45;;;;;;;0.10;0.10;;;4.20;99.90;;;;;;4928755;29;20627;-69
2021/12/29 07:20:13;;;;;;;0.10;0.10;;;4.10;99.90;;;;;;4928546;29;20633;-68
2021/12/29 07:22:41;;;;;;;0.10;0.10;;;4.10;99.90;;;;;;4929768;29;20622;-68
2021/12/29 07:25:08;;;;;;;0.10;0.10;;;4.40;99.90;;;;;;4931799;29;20711;-67
2021/12/29 07:27:35;;;;;;;0.10;0.10;;;4.10;99.90;;;;;;4924733;29;20639;-68
2021/12/29 07:30:02;;;;;;;0.10;0.10;;;4.10;99.90;;;;;;4928246;29;20655;-71
2021/12/29 07:32:28;;;;;;;0.10;0.10;;;4.10;99.90;;;;;;4927995;29;20649;-69
2021/12/29 07:34:55;;;;;;;0.10;0.10;;;4.50;99.90;;;;;;4928114;29;20739;-69
2021/12/29 07:37:23;;;;;;;0.10;0.10;;;4.30;99.90;;;;;;4925772;29;20637;-68
2021/12/29 07:39:50;;;;;;;0.10;0.10;;;4.50;99.90;;;;;;4928316;29;20630;-68
2021/12/29 07:42:17;;;;;;;0.10;0.10;;;4.40;99.90;;;;;;4927912;29;20700;-70
2021/12/29 07:44:46;;;;;;;0.10;0.10;;;4.20;99.90;;;;;;4929314;29;20623;-68
2021/12/29 07:47:14;;;;;;;0.10;0.10;;;4.20;99.90;;;;;;4928810;29;20663;-70
2021/12/29 07:49:41;;;;;;;0.10;0.10;;;3.90;99.90;;;;;;4929450;29;21167;-70
2021/12/29 07:52:09;;;;;;;0.10;0.10;;;4.40;99.90;;;;;;4930427;29;20667;-73
2021/12/29 07:54:38;;;;;;;0.10;0.10;;;4.10;99.90;;;;;;4926599;29;20663;-72
2021/12/29 07:57:05;;;;;;;0.10;0.10;;;4.50;99.90;;;;;;4927297;29;20682;-69
2021/12/29 07:59:34;;;;;;;0.10;0.10;;;4.10;99.90;;;;;;4931997;29;20647;-68
2021/12/29 08:02:02;;;;;;;0.10;0.10;;;4.00;99.90;;;;;;4927927;29;20655;-69
2021/12/29 08:04:29;;;;;;;0.10;0.10;;;4.50;99.90;;;;;;4931496;29;20719;-68
2021/12/29 08:06:57;;;;;;;0.03;0.03;;;4.40;99.90;;;;;;4927248;29;20785;-69
2021/12/29 08:09:25;;;;;;;0.10;0.10;;;4.60;99.90;;;;;;4930044;29;20626;-69
2021/12/29 08:11:55;;;;;;;0.10;0.10;;;4.40;99.90;;;;;;4938671;28;20663;-69
2021/12/29 08:14:21;;;;;;;0.10;0.10;;;4.70;99.90;;;;;;4923965;29;20675;-69
2021/12/29 08:16:49;;;;;;;0.10;0.10;;;4.70;99.90;;;;;;4928482;28;20674;-69
2021/12/29 08:19:16;;;;;;;0.10;0.10;;;4.60;99.90;;;;;;4928280;29;20654;-69
2021/12/29 08:21:43;;;;;;;0.10;0.10;;;4.70;99.90;;;;;;4930401;29;20662;-68
2021/12/29 08:24:10;;;;;;;0.10;0.10;;;4.30;99.90;;;;;;4928289;29;20630;-69
2021/12/29 08:26:38;;;;;;;0.20;0.20;;;4.60;99.90;;;;;;4928302;29;20619;-69
2021/12/29 08:29:06;;;;;;;0.10;0.10;;;4.50;99.90;;;;;;4929163;29;20669;-69
2021/12/29 08:31:33;;;;;;;0.10;0.10;;;4.90;99.90;;;;;;4926066;29;20694;-68
2021/12/29 08:34:01;;;;;;;0.10;0.10;;;4.60;99.90;;;;;;4930151;29;20678;-69
2021/12/29 08:36:27;;;;;;;0.10;0.10;;;4.60;99.90;;;;;;4929074;28;20631;-69
2021/12/29 08:38:54;;;;;;;0.10;0.10;;;4.80;99.90;;;;;;4928780;29;20723;-69
2021/12/29 08:41:21;;;;;;;0.10;0.10;;;4.80;99.90;;;;;;4926915;29;20698;-69
2021/12/29 08:43:49;;;;;;;0.10;0.10;;;4.80;99.90;;;;;;4934810;28;20631;-71
2021/12/29 08:46:17;;;;;;;0.10;0.10;;;5.00;99.90;;;;;;4929444;29;20630;-69
2021/12/29 08:48:45;;;;;;;0.10;0.10;;;5.00;99.90;;;;;;4927077;29;20639;-67
2021/12/29 08:51:12;;;;;;;0.10;0.10;;;5.10;99.90;;;;;;4931730;29;20634;-68
2021/12/29 08:53:39;;;;;;;0.10;0.10;;;4.90;99.90;;;;;;4933369;29;20654;-69
2021/12/29 08:56:07;;;;;;;0.10;0.10;;;5.10;99.90;;;;;;4936253;29;20614;-69
2021/12/29 08:58:34;;;;;;;0.10;0.10;;;4.90;99.90;;;;;;4932389;29;20635;-69
2021/12/29 09:01:05;;;;;;;0.10;0.10;;;4.60;99.90;;;;;;4929807;29;20647;-69
2021/12/29 09:03:34;;;;;;;0.10;0.10;;;5.10;99.90;;;;;;4933466;29;20626;-69
2021/12/29 09:06:01;;;;;;;0.10;0.10;;;4.90;99.90;;;;;;4931912;29;20674;-67
2021/12/29 09:08:28;;;;;;;0.10;0.10;;;4.70;99.90;;;;;;4933526;29;20619;-68
2021/12/29 09:10:56;;;;;;;0.10;0.10;;;4.80;99.90;;;;;;4927180;29;20666;-68
2021/12/29 09:13:23;;;;;;;0.10;0.10;;;4.80;99.90;;;;;;4926417;29;20665;-67
2021/12/29 09:15:56;;;;;;;0.10;0.10;;;5.20;99.90;;;;;;4934122;29;20623;-67
2021/12/29 09:18:24;;;;;;;0.10;0.10;;;4.90;99.90;;;;;;4928160;29;20648;-67
2021/12/29 09:20:55;;;;;;;0.10;0.10;;;4.90;99.90;;;;;;4944895;28;20663;-67
2021/12/29 09:23:24;;;;;;;0.10;0.10;;;4.80;99.90;;;;;;4933378;29;20714;-68
2021/12/29 09:25:53;;;;;;;0.10;0.10;;;5.20;99.90;;;;;;4931245;29;20635;-67
2021/12/29 09:28:22;;;;;;;0.10;0.10;;;4.80;99.90;;;;;;4932969;29;20638;-68
2021/12/29 09:30:52;;;;;;;0.10;0.10;;;5.30;99.90;;;;;;4937761;29;20650;-67
2021/12/29 09:33:20;;;;;;;0.10;0.10;;;5.30;99.90;;;;;;4934895;29;20757;-67
2021/12/29 09:35:51;;;;;;;0.10;0.10;;;5.10;99.90;;;;;;4936078;29;20634;-67
2021/12/29 09:38:20;;;;;;;0.10;0.10;;;5.10;99.90;;;;;;4937167;29;20689;-67
2021/12/29 09:40:49;;;;;;;0.10;0.10;;;5.40;99.90;;;;;;4933220;29;20702;-68
2021/12/29 09:43:17;;;;;;;0.10;0.10;;;5.20;99.90;;;;;;4935039;29;20638;-69
2021/12/29 09:45:46;;;;;;;0.10;0.10;;;5.20;99.90;;;;;;4934574;29;20634;-68
2021/12/29 09:48:24;;;;;;;0.10;0.10;;;5.80;99.90;;;;;;4936430;29;20627;-67
2021/12/29 09:50:53;;;;;;;0.10;0.10;;;5.60;99.90;;;;;;4932205;29;20737;-67
2021/12/29 09:53:23;;;;;;;0.10;0.10;;;5.40;99.90;;;;;;4927354;29;20666;-69
2021/12/29 09:55:51;;;;;;;0.10;0.10;;;5.80;99.90;;;;;;4931157;29;20627;-67
2021/12/29 09:58:21;;;;;;;0.00;0.00;;;6.00;99.90;;;;;;4929582;29;20682;-69
2021/12/29 10:00:54;;;;;;;0.10;0.10;;;5.80;99.90;;;;;;4935745;29;20663;-69
2021/12/29 10:03:25;;;;;;;0.10;0.10;;;6.00;99.90;;;;;;4931518;29;20702;-69
2021/12/29 10:05:56;;;;;;;0.10;0.10;;;6.10;99.90;;;;;;4931224;29;20642;-69
2021/12/29 10:08:28;;;;;;;0.10;0.10;;;6.10;99.90;;;;;;4948410;28;20623;-70
2021/12/29 10:10:59;;;;;;;0.10;0.10;;;5.80;99.90;;;;;;4934941;29;20765;-70
2021/12/29 10:13:30;;;;;;;0.10;0.10;;;6.00;99.90;;;;;;4933302;29;20733;-69
2021/12/29 10:16:02;;;;;;;0.10;0.10;;;6.10;99.90;;;;;;4928860;28;20661;-68
2021/12/29 10:18:32;;;;;;;0.10;0.10;;;5.80;99.90;;;;;;4928867;29;20715;-71
2021/12/29 10:21:02;;;;;;;0.10;0.10;;;6.00;99.90;;;;;;4930155;29;20659;-72
2021/12/29 10:23:34;;;;;;;0.10;0.10;;;6.00;99.90;;;;;;4932756;29;20621;-70
2021/12/29 10:26:07;;;;;;;0.10;0.10;;;6.30;99.90;;;;;;4932885;29;21265;-70
2021/12/29 10:28:36;;;;;;;0.00;0.00;;;6.20;99.90;;;;;;4932520;29;20623;-72
2021/12/29 10:31:05;;;;;;;0.10;0.10;;;;;;;;;;4929570;29;20753;-72
2021/12/29 10:33:37;;;;;;;0.00;0.00;;;;;;;;;;4934611;29;20626;-70
2021/12/29 10:36:15;;;;;;;0.10;0.10;;;;;;;;;;4930910;28;20690;-72
2021/12/29 10:38:45;;;;;;;0.00;0.00;;;;;;;;;;4928114;29;20627;-73
2021/12/29 10:41:13;;;;;;;0.00;0.00;;;;;;;;;;4928259;29;20676;-72
2021/12/29 10:43:41;;;;;;;0.10;0.10;;;;;;;;;;4928073;29;20725;-73
2021/12/29 10:46:18;;;;;;;0.10;0.10;;;;;;;;;;4927833;29;20623;-71
2021/12/29 10:48:48;;;;;;;0.10;0.10;;;;;;;;;;4929496;29;20634;-72
2021/12/29 10:51:15;;;;;;;0.10;0.10;;;;;;;;;;4927674;29;21248;-70
2021/12/29 10:53:43;;;;;;;0.10;0.10;;;;;;;;;;4930149;29;20655;-71
2021/12/29 10:56:21;;;;;;;0.10;0.10;;;;;;;;;;4928762;29;20633;-72
2021/12/29 10:58:48;;;;;;;0.10;0.10;;;;;;;;;;4929224;28;20694;-72
2021/12/29 11:01:19;;;;;;;0.10;0.10;;;;;;;;;;4929584;29;20660;-73
2021/12/29 11:03:48;;;;;;;0.10;0.10;;;6.80;99.90;;;;;;4944968;28;20662;-72
2021/12/29 11:06:17;;;;;;;0.10;0.10;;;;;;;;;;4928799;29;20634;-71
2021/12/29 11:08:48;;;;;;;0.10;0.10;;;;;;;;;;4928628;29;20655;-72
2021/12/29 11:11:16;;;;;;;0.10;0.10;;;7.10;99.90;;;;;;4931147;29;20745;-72
2021/12/29 11:13:45;;;;;;;0.10;0.10;;;7.10;99.90;;;;;;4925763;29;20626;-72
2021/12/29 11:16:13;;;;;;;0.10;0.10;;;7.10;99.90;;;;;;4925825;29;20631;-72
2021/12/29 11:18:43;;;;;;;0.10;0.10;;;7.20;99.90;;;;;;4927720;29;20642;-72
2021/12/29 11:21:11;;;;;;;0.00;0.00;;;7.00;99.90;;;;;;4928414;29;20671;-72
2021/12/29 11:23:41;;;;;;;0.10;0.10;;;7.40;99.90;;;;;;4930081;29;20634;-71
2021/12/29 11:26:11;;;;;;;0.10;0.10;;;7.10;99.90;;;;;;4930613;29;20714;-71
2021/12/29 11:28:38;;;;;;;0.10;0.10;;;;;;;;;;4929520;29;20754;-71
2021/12/29 11:31:08;;;;;;;0.10;0.10;;;;;;;;;;4929418;29;20671;-69
2021/12/29 11:33:35;;;;;;;0.10;0.10;;;;;;;;;;4928153;29;20647;-71
2021/12/29 11:36:05;;;;;;;0.10;0.10;;;7.30;99.90;;;;;;4930850;28;20630;-70
2021/12/29 11:38:34;;;;;;;0.10;0.10;;;7.30;99.90;;;;;;4928686;29;20635;-70
2021/12/29 11:41:03;;;;;;;0.10;0.10;;;7.40;99.90;;;;;;4928752;29;21135;-72
2021/12/29 11:43:31;;;;;;;0.00;0.00;;;7.40;99.90;;;;;;4929318;29;20635;-70
2021/12/29 11:45:58;;;;;;;0.10;0.10;;;7.40;99.90;;;;;;4926592;29;20615;-72
2021/12/29 11:48:26;;;;;;;0.10;0.10;;;7.40;99.90;;;;;;4921705;29;20627;-71
2021/12/29 11:51:03;;;;;;;0.10;0.10;;;7.50;99.90;;;;;;4932706;28;20655;-69
2021/12/29 11:53:35;;;;;;;0.03;0.03;;;7.50;99.90;;;;;;4925829;29;20642;-71
2021/12/29 11:56:05;;;;;;;0.10;0.10;;;7.60;99.90;;;;;;4928833;29;20665;-71
2021/12/29 11:58:35;;;;;;;0.10;0.10;;;7.60;99.90;;;;;;4925354;29;21200;-69
2021/12/29 12:01:06;;;;;;;0.00;0.00;;;7.70;99.90;;;;;;4939689;28;20670;-71
2021/12/29 12:03:43;;;;;;;0.10;0.10;;;;;;;;;;4924645;29;20711;-70
2021/12/29 12:06:19;;;;;;;0.10;0.10;;;;;;;;;;4923201;29;20729;-72
2021/12/29 12:08:47;;;;;;;0.10;0.10;;;;;;;;;;4923918;29;20619;-72
2021/12/29 12:11:24;;;;;;;0.00;0.00;;;;;;;;;;4934807;28;20682;-72
2021/12/29 12:13:51;;;;;;;0.10;0.10;;;;;;;;;;4924109;29;20662;-70
2021/12/29 12:16:19;;;;;;;0.10;0.10;;;;;;;;;;4941781;28;20718;-72
2021/12/29 12:18:50;;;;;;;0.00;0.00;;;;;;;;;;4927527;29;20646;-71
2021/12/29 12:21:23;;;;;;;0.10;0.10;;;;;;;;;;4940754;28;20749;-71
2021/12/29 12:23:51;;;;;;;0.00;0.00;;;;;;;;;;4928035;29;20691;-71
2021/12/29 12:26:22;;;;;;;0.00;0.00;;;;;;;;;;4928684;29;20662;-72
2021/12/29 12:28:51;;;;;;;0.10;0.10;;;;;;;;;;4935046;28;20663;-71
2021/12/29 12:31:22;;;;;;;0.03;0.03;;;;;;;;;;4929410;29;20667;-71
2021/12/29 12:33:52;;;;;;;0.00;0.00;;;;;;;;;;4929020;29;20738;-71
2021/12/29 12:36:19;;;;;;;0.10;0.10;;;;;;;;;;4926779;29;20655;-72
2021/12/29 12:38:47;;;;;;;0.10;0.10;;;;;;;;;;4931764;29;20685;-71
2021/12/29 12:41:16;;;;;;;0.10;0.10;;;;;;;;;;4926473;28;21304;-71
2021/12/29 12:43:50;;;;;;;0.10;0.10;;;;;;;;;;4929091;29;20623;-71
2021/12/29 12:46:27;;;;;;;0.10;0.10;;;;;;;;;;4926991;29;20622;-72
2021/12/29 12:48:56;;;;;;;0.00;0.00;;;;;;;;;;4926532;29;20626;-70
2021/12/29 12:51:23;;;;;;;0.10;0.10;;;;;;;;;;4924265;29;20663;-71
2021/12/29 12:53:50;;;;;;;0.10;0.10;;;;;;;;;;4928932;28;20627;-71
2021/12/29 12:56:19;;;;;;;0.10;0.10;;;;;;;;;;4927491;29;20677;-71
2021/12/29 12:58:50;;;;;;;0.00;0.00;;;;;;;;;;4932972;28;20909;-71
2021/12/29 13:01:18;;;;;;;0.10;0.10;;;;;;;;;;4927926;29;20657;-71
2021/12/29 13:03:47;;;;;;;0.10;0.10;;;;;;;;;;4927923;29;21189;-72
2021/12/29 13:06:17;;;;;;;0.00;0.00;;;;;;;;;;4922211;29;20635;-71
2021/12/29 13:08:46;;;;;;;0.10;0.10;;;;;;;;;;4931059;29;20623;-71
2021/12/29 13:11:15;;;;;;;0.10;0.10;;;;;;;;;;4929431;29;20650;-76
2021/12/29 13:13:43;;;;;;;0.10;0.10;;;;;;;;;;4934292;29;20626;-72
2021/12/29 13:16:12;;;;;;;0.10;0.10;;;;;;;;;;4927802;29;20666;-71
2021/12/29 13:18:39;;;;;;;0.10;0.10;;;;;;;;;;4929366;29;20689;-72
2021/12/29 13:21:08;;;;;;;0.10;0.10;;;;;;;;;;4931007;29;20762;-71
2021/12/29 13:23:38;;;;;;;0.10;0.10;;;;;;;;;;4939323;28;20643;-71
2021/12/29 13:26:06;;;;;;;0.10;0.10;;;;;;;;;;4932595;28;20670;-71